Nearby METAR Reports

 

LBGO - Gorna Oryahovista, Bulgaria
Distance from station: NE 50km
Updated: 19/08/2018 22:30
Clear
Clear
 Wind from calm
Wind: Calm
Temperature: 21°C
Dew Point: 20°C
Humidity: 94%
Barometer: 1016 hPa
Clouds: Clear
Visibility: 10 km
2018/08/19 19:30 LBGO 191930Z AUTO 00000KT 9999 NCD 21/20 Q1016